Time;durP1;ratioP1;P1;durP2;ratioP2;P2;SDS_P1;SDS_P2;PMS_P1;PMS_P2;Temp;Humidity;BMP_temperature;BMP_pressure;BME280_temperature;BME280_humidity;BME280_pressure;Samples;Min_cycle;Max_cycle;Signal;HPM_P1;HPM_P2
2023/07/29 00:00:50;;;;;;;7.22;4.22;;;17.70;99.90;;;;;;5024765;28;20049;-52
2023/07/29 00:03:18;;;;;;;5.13;3.47;;;17.70;99.90;;;;;;5024420;28;20060;-50
2023/07/29 00:05:47;;;;;;;5.53;3.30;;;17.70;99.90;;;;;;5025679;28;20034;-49
2023/07/29 00:08:14;;;;;;;7.85;3.10;;;17.70;99.90;;;;;;5031186;28;20132;-48
2023/07/29 00:10:41;;;;;;;6.00;3.90;;;17.70;99.90;;;;;;5024451;28;20073;-54
2023/07/29 00:13:09;;;;;;;6.90;3.90;;;17.70;99.90;;;;;;5022374;28;20045;-48
2023/07/29 00:15:36;;;;;;;6.90;4.25;;;17.70;99.90;;;;;;5022410;28;20068;-49
2023/07/29 00:18:03;;;;;;;5.05;3.47;;;17.80;99.90;;;;;;5024604;28;20148;-51
2023/07/29 00:20:31;;;;;;;5.93;4.00;;;17.70;99.90;;;;;;5023079;28;20053;-50
2023/07/29 00:22:58;;;;;;;5.72;3.33;;;17.70;99.90;;;;;;5024056;28;20399;-53
2023/07/29 00:25:26;;;;;;;7.97;4.22;;;17.70;99.90;;;;;;5026274;28;20045;-55
2023/07/29 00:27:57;;;;;;;7.72;4.18;;;17.70;99.90;;;;;;5027669;28;20534;-50
2023/07/29 00:30:25;;;;;;;7.78;4.38;;;17.70;99.90;;;;;;5009210;28;20045;-52
2023/07/29 00:32:53;;;;;;;6.15;3.50;;;17.70;99.90;;;;;;5027711;28;20057;-51
2023/07/29 00:35:20;;;;;;;5.65;3.90;;;17.80;99.90;;;;;;5028926;28;20068;-61
2023/07/29 00:37:47;;;;;;;6.25;4.10;;;17.70;99.90;;;;;;5026755;28;20050;-46
2023/07/29 00:40:19;;;;;;;6.78;4.30;;;17.70;99.90;;;;;;5026679;28;20088;-53
2023/07/29 00:42:48;;;;;;;6.72;4.00;;;17.70;99.90;;;;;;5027719;28;20049;-54
2023/07/29 00:45:15;;;;;;;6.20;4.03;;;17.70;99.90;;;;;;5026993;28;20100;-51
2023/07/29 00:47:44;;;;;;;6.57;3.80;;;17.70;99.90;;;;;;5026489;28;20441;-51
2023/07/29 00:50:13;;;;;;;6.88;4.15;;;17.70;99.90;;;;;;5027256;28;20076;-52
2023/07/29 00:52:41;;;;;;;10.60;4.80;;;17.60;99.90;;;;;;5024566;28;20046;-53
2023/07/29 00:55:09;;;;;;;7.55;4.00;;;17.60;99.90;;;;;;5028929;28;20414;-48
2023/07/29 00:57:36;;;;;;;7.68;4.32;;;17.60;99.90;;;;;;5025626;28;20092;-50
2023/07/29 01:00:05;;;;;;;8.13;4.60;;;17.60;99.90;;;;;;5023144;28;20054;-52
2023/07/29 01:02:33;;;;;;;6.63;4.70;;;17.50;99.90;;;;;;5024766;28;20475;-51
2023/07/29 01:05:01;;;;;;;8.30;4.50;;;17.60;99.90;;;;;;5026617;28;20046;-53
2023/07/29 01:07:51;;;;;;;6.57;4.20;;;17.50;99.90;;;;;;5025316;28;20049;-54
2023/07/29 01:10:49;;;;;;;6.72;4.60;;;17.50;99.90;;;;;;5026431;28;20123;-52
2023/07/29 01:13:28;;;;;;;8.10;4.75;;;17.40;99.90;;;;;;5022376;28;20053;-52
2023/07/29 01:16:03;;;;;;;8.00;4.43;;;17.40;99.90;;;;;;5026983;28;20056;-51
2023/07/29 01:18:35;;;;;;;9.77;4.90;;;17.40;99.90;;;;;;5026168;28;20073;-53
2023/07/29 01:21:09;;;;;;;8.13;4.30;;;17.40;99.90;;;;;;5028231;28;20069;-50
2023/07/29 01:23:37;;;;;;;7.35;4.63;;;17.30;99.90;;;;;;5024510;28;20057;-55
2023/07/29 01:26:05;;;;;;;6.60;4.63;;;17.30;99.90;;;;;;5026766;28;20413;-56
2023/07/29 01:28:33;;;;;;;7.50;4.78;;;17.30;99.90;;;;;;5026026;28;20129;-49
2023/07/29 01:31:30;;;;;;;7.63;4.65;;;17.30;99.90;;;;;;5028637;28;20045;-53
2023/07/29 01:34:06;;;;;;;8.98;4.90;;;17.20;99.90;;;;;;5027522;28;20133;-51
2023/07/29 01:36:39;;;;;;;9.20;5.03;;;17.20;99.90;;;;;;5026199;28;20046;-52
2023/07/29 01:39:08;;;;;;;8.63;4.68;;;17.20;99.90;;;;;;5027079;28;20095;-55
2023/07/29 01:41:36;;;;;;;7.00;4.60;;;17.10;99.90;;;;;;5024615;28;20424;-52
2023/07/29 01:44:04;;;;;;;9.13;5.38;;;17.10;99.90;;;;;;5027213;28;20076;-51
2023/07/29 01:46:34;;;;;;;6.70;4.63;;;17.10;99.90;;;;;;5028239;28;20429;-51
2023/07/29 01:49:02;;;;;;;8.73;5.05;;;17.10;99.90;;;;;;5025809;28;20103;-53
2023/07/29 01:51:31;;;;;;;7.13;4.63;;;17.10;99.90;;;;;;5027607;28;20037;-57
2023/07/29 01:53:59;;;;;;;6.90;4.50;;;17.10;99.90;;;;;;5029357;28;20077;-50
2023/07/29 01:56:27;;;;;;;9.25;5.40;;;17.10;99.90;;;;;;5028161;28;20049;-50
2023/07/29 01:58:56;;;;;;;7.75;5.20;;;17.00;99.90;;;;;;5026065;28;20041;-50
2023/07/29 02:01:23;;;;;;;7.10;5.15;;;17.00;99.90;;;;;;5029577;28;20045;-51
2023/07/29 02:03:54;;;;;;;7.78;5.78;;;17.10;99.90;;;;;;5028695;28;20300;-51
2023/07/29 02:06:24;;;;;;;8.70;5.00;;;17.00;99.90;;;;;;5025887;28;20041;-56
2023/07/29 02:08:51;;;;;;;8.95;5.38;;;17.00;99.90;;;;;;5025402;28;20037;-51
2023/07/29 02:11:20;;;;;;;6.55;4.85;;;17.00;99.90;;;;;;5026513;28;20046;-57
2023/07/29 02:13:48;;;;;;;7.30;5.18;;;16.90;99.90;;;;;;5024998;28;20049;-53
2023/07/29 02:16:16;;;;;;;9.98;6.55;;;16.90;99.90;;;;;;5029664;28;20046;-50
2023/07/29 02:18:43;;;;;;;8.70;6.03;;;16.90;99.90;;;;;;5024809;28;20139;-54
2023/07/29 02:21:10;;;;;;;9.73;6.22;;;17.00;99.90;;;;;;5027089;28;20045;-49
2023/07/29 02:23:38;;;;;;;7.53;5.93;;;16.90;99.90;;;;;;5027143;28;20084;-59
2023/07/29 02:26:06;;;;;;;7.80;5.55;;;16.90;99.90;;;;;;5028576;28;20449;-51
2023/07/29 02:28:33;;;;;;;7.60;5.22;;;16.90;99.90;;;;;;5026818;28;20033;-48
2023/07/29 02:31:19;;;;;;;9.73;5.57;;;16.90;99.90;;;;;;5023202;28;20127;-56
2023/07/29 02:33:47;;;;;;;9.15;5.93;;;16.90;99.90;;;;;;5026813;28;20057;-51
2023/07/29 02:36:15;;;;;;;7.03;4.82;;;16.90;99.90;;;;;;5026032;28;20477;-53
2023/07/29 02:38:43;;;;;;;8.88;5.18;;;16.80;99.90;;;;;;5026281;28;20073;-52
2023/07/29 02:41:15;;;;;;;7.47;5.30;;;16.80;99.90;;;;;;5027796;28;20057;-53
2023/07/29 02:43:47;;;;;;;8.40;5.57;;;16.70;99.90;;;;;;5026418;28;20053;-52
2023/07/29 02:46:14;;;;;;;10.73;6.40;;;16.70;99.90;;;;;;5024315;28;20553;-55
2023/07/29 02:48:42;;;;;;;9.27;5.22;;;16.70;99.90;;;;;;5026795;28;20522;-51
2023/07/29 02:51:10;;;;;;;7.28;5.20;;;16.70;99.90;;;;;;5024074;28;20045;-54
2023/07/29 02:53:37;;;;;;;11.25;5.93;;;16.70;99.90;;;;;;5026518;28;20216;-57
2023/07/29 02:56:06;;;;;;;7.35;4.93;;;16.70;99.90;;;;;;5027693;28;20053;-51
2023/07/29 02:58:33;;;;;;;8.02;4.63;;;16.70;99.90;;;;;;5027733;28;20046;-52
2023/07/29 03:01:05;;;;;;;7.75;5.38;;;16.60;99.90;;;;;;5025450;28;20053;-47
2023/07/29 03:03:32;;;;;;;;;;;16.60;99.90;;;;;;5026242;28;20045;-48
2023/07/29 03:06:03;;;;;;;9.98;6.15;;;16.60;99.90;;;;;;5024122;28;19932;-53
2023/07/29 03:08:31;;;;;;;9.82;5.22;;;16.60;99.90;;;;;;5040515;28;20107;-54
2023/07/29 03:10:59;;;;;;;7.72;5.20;;;16.60;99.90;;;;;;5023684;28;20510;-50
2023/07/29 03:13:26;;;;;;;7.68;5.75;;;16.60;99.90;;;;;;5026573;28;20076;-52
2023/07/29 03:15:53;;;;;;;8.77;5.32;;;16.60;99.90;;;;;;5026441;28;20501;-56
2023/07/29 03:18:21;;;;;;;9.10;5.65;;;16.60;99.90;;;;;;5028013;28;20052;-49
2023/07/29 03:20:49;;;;;;;8.93;5.50;;;16.60;99.90;;;;;;5025222;28;20048;-51
2023/07/29 03:23:16;;;;;;;8.98;5.97;;;16.60;99.90;;;;;;5025883;28;20580;-51
2023/07/29 03:25:44;;;;;;;8.98;6.15;;;16.70;99.90;;;;;;5026827;28;20462;-49
2023/07/29 03:28:12;;;;;;;10.50;5.85;;;16.70;99.90;;;;;;5026322;28;20391;-57
2023/07/29 03:30:39;;;;;;;8.68;5.97;;;16.70;99.90;;;;;;5026456;28;20045;-51
2023/07/29 03:33:07;;;;;;;8.02;5.53;;;16.70;99.90;;;;;;5025358;28;20509;-50
2023/07/29 03:35:35;;;;;;;7.53;5.10;;;16.70;99.90;;;;;;5022909;28;20057;-54
2023/07/29 03:38:02;;;;;;;7.32;5.30;;;16.70;99.90;;;;;;5020914;28;20045;-54
2023/07/29 03:40:29;;;;;;;8.15;5.88;;;16.80;99.90;;;;;;5024526;28;20127;-53
2023/07/29 03:42:57;;;;;;;7.45;5.50;;;16.80;99.90;;;;;;5026695;28;20132;-50
2023/07/29 03:45:24;;;;;;;9.40;5.88;;;16.80;99.90;;;;;;5027827;28;20120;-56
2023/07/29 03:47:51;;;;;;;8.40;5.72;;;16.80;99.90;;;;;;5024223;28;20049;-50
2023/07/29 03:50:19;;;;;;;9.73;6.05;;;16.80;99.90;;;;;;5026223;28;20053;-56
2023/07/29 03:52:46;;;;;;;9.25;5.90;;;16.90;99.90;;;;;;5024335;28;20041;-52
2023/07/29 03:55:13;;;;;;;8.75;5.78;;;16.90;99.90;;;;;;5025748;28;20041;-51
2023/07/29 03:57:41;;;;;;;9.55;6.22;;;16.90;99.90;;;;;;5024521;28;20049;-56
2023/07/29 04:00:11;;;;;;;12.43;6.60;;;17.00;99.90;;;;;;5030183;28;20564;-53
2023/07/29 04:02:42;;;;;;;7.70;5.53;;;17.00;99.90;;;;;;5028869;28;20045;-51
2023/07/29 04:05:10;;;;;;;9.80;5.47;;;17.00;99.90;;;;;;5028621;28;20041;-52
2023/07/29 04:07:38;;;;;;;8.10;5.75;;;17.10;99.90;;;;;;5026096;28;20049;-51
2023/07/29 04:10:06;;;;;;;10.13;5.90;;;17.20;99.90;;;;;;5030612;28;20529;-53
2023/07/29 04:12:34;;;;;;;8.65;6.03;;;17.20;99.90;;;;;;5028019;28;20529;-51
2023/07/29 04:15:01;;;;;;;8.52;5.18;;;17.20;99.90;;;;;;5030378;28;20057;-50
2023/07/29 04:17:29;;;;;;;9.55;5.05;;;17.30;99.90;;;;;;5027021;28;20418;-53
2023/07/29 04:19:56;;;;;;;7.78;4.80;;;17.40;99.90;;;;;;5028380;28;20127;-48
2023/07/29 04:22:29;;;;;;;8.52;4.53;;;17.40;99.90;;;;;;5027844;28;20127;-51
2023/07/29 04:24:56;;;;;;;9.57;5.03;;;17.50;99.90;;;;;;5029343;28;20092;-51
2023/07/29 04:27:24;;;;;;;8.88;5.43;;;17.50;99.90;;;;;;5030918;28;20126;-55
2023/07/29 04:29:51;;;;;;;9.50;4.68;;;17.70;99.90;;;;;;5029030;28;20064;-49
2023/07/29 04:32:18;;;;;;;9.32;4.72;;;17.70;99.90;;;;;;5029977;28;20061;-53
2023/07/29 04:34:46;;;;;;;6.15;4.18;;;17.80;99.90;;;;;;5027410;28;20482;-54
2023/07/29 04:37:13;;;;;;;6.53;4.45;;;17.90;99.90;;;;;;5029872;28;20140;-51
2023/07/29 04:39:41;;;;;;;8.57;4.37;;;18.00;99.90;;;;;;5029062;28;20041;-55
2023/07/29 04:42:08;;;;;;;7.68;4.30;;;18.00;99.90;;;;;;5028497;28;20053;-49
2023/07/29 04:44:35;;;;;;;9.05;4.65;;;18.10;99.90;;;;;;5027570;28;20080;-52
2023/07/29 04:47:02;;;;;;;5.57;3.92;;;18.20;99.90;;;;;;5031314;28;20049;-55
2023/07/29 04:49:30;;;;;;;5.55;3.45;;;18.20;99.90;;;;;;5028978;28;20223;-50
2023/07/29 04:51:57;;;;;;;6.93;3.70;;;18.30;99.90;;;;;;5027504;28;20144;-52
2023/07/29 04:54:24;;;;;;;7.25;3.55;;;18.40;99.90;;;;;;5028947;28;20577;-53
2023/07/29 04:56:52;;;;;;;5.90;3.42;;;18.50;99.90;;;;;;5028560;28;20049;-56
2023/07/29 04:59:19;;;;;;;5.72;3.50;;;18.50;99.90;;;;;;5030222;28;20075;-53
2023/07/29 05:01:47;;;;;;;5.75;3.40;;;18.60;99.90;;;;;;5027339;28;20041;-54
2023/07/29 05:04:16;;;;;;;4.35;2.92;;;18.60;99.90;;;;;;5029767;28;20041;-55
2023/07/29 05:06:43;;;;;;;6.82;3.97;;;18.70;99.90;;;;;;5028842;28;20050;-54
2023/07/29 05:09:19;;;;;;;5.88;3.17;;;18.70;99.90;;;;;;5027935;28;20726;-53
2023/07/29 05:11:48;;;;;;;4.75;3.00;;;18.70;99.90;;;;;;5024141;28;20554;-54
2023/07/29 05:14:17;;;;;;;6.45;3.28;;;18.70;99.90;;;;;;5020147;28;20089;-50
2023/07/29 05:16:45;;;;;;;6.22;3.25;;;18.70;99.90;;;;;;5025731;28;20399;-49
2023/07/29 05:19:12;;;;;;;5.88;3.53;;;18.80;99.90;;;;;;5028899;28;20045;-54
2023/07/29 05:21:39;;;;;;;5.47;2.80;;;18.80;99.90;;;;;;5027111;28;20035;-53
2023/07/29 05:24:07;;;;;;;7.63;2.83;;;18.80;99.90;;;;;;5029031;28;20050;-51
2023/07/29 05:26:34;;;;;;;6.05;2.95;;;18.80;99.90;;;;;;5027606;28;20136;-54
2023/07/29 05:29:03;;;;;;;4.53;3.08;;;18.80;99.90;;;;;;5027451;28;20042;-52
2023/07/29 05:31:31;;;;;;;5.35;2.83;;;18.80;99.90;;;;;;5026882;28;20049;-50
2023/07/29 05:33:59;;;;;;;6.18;3.08;;;18.90;99.90;;;;;;5011719;28;20072;-50
2023/07/29 05:36:29;;;;;;;5.22;2.58;;;18.90;99.90;;;;;;5027746;28;20387;-50
2023/07/29 05:38:56;;;;;;;6.85;3.42;;;18.90;99.90;;;;;;5028240;28;20129;-52
2023/07/29 05:41:25;;;;;;;5.55;2.60;;;19.00;99.90;;;;;;5025091;28;20072;-50
2023/07/29 05:43:53;;;;;;;5.95;3.13;;;19.00;99.90;;;;;;5025329;28;20045;-54
2023/07/29 05:46:20;;;;;;;8.25;2.35;;;19.00;99.90;;;;;;5023766;28;20088;-53
2023/07/29 05:48:47;;;;;;;5.50;2.55;;;19.10;99.90;;;;;;5027072;28;20117;-53
2023/07/29 05:51:15;;;;;;;4.63;2.53;;;19.20;99.90;;;;;;5027557;28;20061;-51
2023/07/29 05:53:42;;;;;;;4.55;2.75;;;19.30;99.90;;;;;;5027846;28;20049;-53
2023/07/29 05:56:10;;;;;;;7.80;3.20;;;19.30;99.90;;;;;;5023300;28;20049;-52
2023/07/29 05:58:37;;;;;;;5.40;2.42;;;19.30;99.90;;;;;;5026717;28;20062;-53
2023/07/29 06:01:06;;;;;;;4.68;2.47;;;19.30;99.90;;;;;;5026128;28;20050;-50
2023/07/29 06:03:34;;;;;;;4.85;2.58;;;19.30;99.90;;;;;;5027474;28;20045;-56
2023/07/29 06:06:02;;;;;;;4.65;2.42;;;19.20;99.90;;;;;;5028299;28;20459;-49
2023/07/29 06:08:29;;;;;;;4.15;2.40;;;19.10;99.90;;;;;;5027129;28;20568;-50
2023/07/29 06:10:57;;;;;;;5.03;2.50;;;19.10;99.90;;;;;;5028069;28;20125;-50
2023/07/29 06:13:24;;;;;;;7.50;3.40;;;19.10;99.90;;;;;;5026452;28;20049;-55
2023/07/29 06:15:51;;;;;;;6.38;3.60;;;19.10;99.90;;;;;;5026821;28;20041;-55
2023/07/29 06:18:19;;;;;;;4.82;2.95;;;18.90;99.90;;;;;;5027422;28;20115;-54
2023/07/29 06:20:46;;;;;;;6.38;3.20;;;18.90;99.90;;;;;;5027075;28;20037;-53
2023/07/29 06:23:13;;;;;;;6.53;3.05;;;18.90;99.90;;;;;;5023954;28;20045;-57
2023/07/29 06:25:41;;;;;;;11.75;2.97;;;18.80;99.90;;;;;;5024289;28;20045;-53
2023/07/29 06:28:11;;;;;;;5.90;2.70;;;18.80;99.90;;;;;;5025928;28;20490;-47
2023/07/29 06:30:39;;;;;;;6.05;2.80;;;18.70;99.90;;;;;;5023877;28;20052;-55
2023/07/29 06:33:06;;;;;;;12.73;3.20;;;18.70;99.90;;;;;;5027664;28;20510;-52
2023/07/29 06:35:33;;;;;;;8.93;3.03;;;18.70;99.90;;;;;;5026671;28;20136;-56
2023/07/29 06:38:01;;;;;;;6.20;3.15;;;18.60;99.90;;;;;;5026843;28;20068;-54
2023/07/29 06:40:28;;;;;;;6.03;3.20;;;18.70;99.90;;;;;;5026487;28;20099;-51
2023/07/29 06:42:56;;;;;;;5.22;3.00;;;18.70;99.90;;;;;;5026019;28;20053;-49
2023/07/29 06:45:23;;;;;;;6.55;3.42;;;18.70;99.90;;;;;;5027264;28;20049;-51
2023/07/29 06:47:50;;;;;;;10.27;3.72;;;18.70;99.90;;;;;;5025379;28;20073;-54
2023/07/29 06:50:18;;;;;;;8.52;4.05;;;18.60;99.90;;;;;;5026289;28;20041;-55
2023/07/29 06:52:45;;;;;;;7.47;3.45;;;18.40;99.90;;;;;;5024957;28;20044;-57
2023/07/29 06:55:13;;;;;;;5.07;3.13;;;18.20;99.90;;;;;;5027755;28;20524;-59
2023/07/29 06:57:40;;;;;;;6.40;3.40;;;18.10;99.90;;;;;;5025028;28;20095;-50
2023/07/29 07:00:09;;;;;;;16.55;9.68;;;18.00;99.90;;;;;;5022056;28;20087;-54
2023/07/29 07:02:37;;;;;;;5.35;3.20;;;18.00;99.90;;;;;;5032931;28;20045;-54
2023/07/29 07:05:04;;;;;;;7.47;2.88;;;17.90;99.90;;;;;;5028742;28;20045;-54
2023/07/29 07:07:32;;;;;;;4.72;2.40;;;18.00;99.90;;;;;;5031358;28;20125;-54
2023/07/29 07:09:59;;;;;;;4.53;2.55;;;18.00;99.90;;;;;;5030494;28;20155;-53
2023/07/29 07:12:28;;;;;;;5.50;2.90;;;18.00;99.90;;;;;;5030808;28;20045;-50
2023/07/29 07:14:56;;;;;;;10.10;2.70;;;18.10;99.90;;;;;;5033383;28;20050;-55
2023/07/29 07:17:23;;;;;;;5.25;2.63;;;18.20;99.90;;;;;;5035017;28;20053;-56
2023/07/29 07:19:51;;;;;;;4.53;2.40;;;18.20;99.90;;;;;;5026824;28;20058;-53
2023/07/29 07:22:18;;;;;;;7.72;3.20;;;18.20;99.90;;;;;;5023253;28;20099;-54
2023/07/29 07:24:45;;;;;;;6.05;3.50;;;18.30;99.90;;;;;;5025543;28;20038;-56
2023/07/29 07:27:13;;;;;;;6.68;4.00;;;18.50;99.90;;;;;;5026051;28;20202;-51
2023/07/29 07:29:40;;;;;;;7.80;3.72;;;18.70;99.90;;;;;;5026092;28;20052;-52
2023/07/29 07:32:07;;;;;;;8.13;3.10;;;18.90;99.90;;;;;;5023085;28;20070;-56
2023/07/29 07:34:35;;;;;;;6.88;3.60;;;19.00;99.90;;;;;;5022190;28;20063;-60
2023/07/29 07:37:04;;;;;;;7.40;3.45;;;19.10;99.90;;;;;;5029581;28;20417;-52
2023/07/29 07:39:32;;;;;;;5.95;3.30;;;19.30;99.90;;;;;;5023607;28;20095;-52
2023/07/29 07:41:59;;;;;;;6.35;3.50;;;19.40;99.90;;;;;;5025707;28;20051;-50
2023/07/29 07:44:26;;;;;;;8.25;3.30;;;19.50;99.90;;;;;;5024837;28;20033;-52
2023/07/29 07:46:53;;;;;;;7.05;4.25;;;19.60;99.90;;;;;;5025306;28;20045;-50
2023/07/29 07:49:22;;;;;;;6.75;2.92;;;19.70;99.90;;;;;;5025588;28;20053;-50
2023/07/29 07:51:49;;;;;;;6.60;3.50;;;19.60;99.90;;;;;;5025465;28;20060;-54
2023/07/29 07:54:16;;;;;;;7.60;3.75;;;19.60;99.90;;;;;;5025479;28;20133;-54
2023/07/29 07:56:44;;;;;;;6.90;3.15;;;19.60;99.90;;;;;;5022847;28;21251;-53
2023/07/29 07:59:11;;;;;;;7.55;4.25;;;19.50;99.90;;;;;;5025025;28;20435;-54
2023/07/29 08:01:41;;;;;;;6.15;4.40;;;19.40;99.90;;;;;;5022810;28;20136;-51
2023/07/29 08:04:08;;;;;;;10.43;4.65;;;19.40;99.90;;;;;;5023987;28;20042;-55
2023/07/29 08:06:36;;;;;;;8.90;4.50;;;19.30;99.90;;;;;;5023300;28;20069;-55
2023/07/29 08:09:04;;;;;;;12.43;4.85;;;19.20;99.90;;;;;;5023861;28;20072;-54
2023/07/29 08:11:32;;;;;;;10.98;5.70;;;19.10;99.90;;;;;;5024670;28;20056;-53
2023/07/29 08:13:59;;;;;;;8.40;4.63;;;19.00;99.90;;;;;;5026282;28;20057;-55
2023/07/29 08:16:27;;;;;;;14.40;5.30;;;18.90;99.90;;;;;;5025241;28;20046;-50
2023/07/29 08:18:54;;;;;;;8.15;4.72;;;18.90;99.90;;;;;;5025922;28;20102;-55
2023/07/29 08:21:22;;;;;;;9.23;4.82;;;18.90;99.90;;;;;;5025512;28;20045;-54
2023/07/29 08:23:49;;;;;;;7.45;5.13;;;19.00;99.90;;;;;;5024386;28;20038;-58
2023/07/29 08:26:16;;;;;;;7.60;4.80;;;18.90;99.90;;;;;;5025032;28;20052;-55
2023/07/29 08:28:44;;;;;;;9.43;4.50;;;19.00;99.90;;;;;;5024460;28;20092;-53
2023/07/29 08:31:11;;;;;;;8.55;4.30;;;18.90;99.90;;;;;;5025806;28;20385;-52
2023/07/29 08:33:38;;;;;;;11.27;5.43;;;18.90;99.90;;;;;;5024231;28;20050;-57
2023/07/29 08:36:05;;;;;;;10.30;5.57;;;18.80;99.90;;;;;;5025185;28;20049;-57
2023/07/29 08:38:33;;;;;;;9.10;6.18;;;18.80;99.90;;;;;;5024492;28;20063;-55
2023/07/29 08:41:21;;;;;;;9.25;5.50;;;18.80;99.90;;;;;;5023003;28;20050;-55
2023/07/29 08:44:07;;;;;;;13.10;6.40;;;18.80;99.90;;;;;;5023639;28;20061;-56
2023/07/29 08:46:39;;;;;;;11.05;6.50;;;18.90;99.90;;;;;;5023744;28;20128;-55
2023/07/29 08:49:09;;;;;;;7.72;4.38;;;18.90;99.90;;;;;;5026555;28;20045;-54
2023/07/29 08:51:37;;;;;;;7.80;3.95;;;18.80;99.90;;;;;;5025799;28;20053;-55
2023/07/29 08:54:05;;;;;;;5.95;3.60;;;18.80;99.90;;;;;;5025289;28;20184;-54
2023/07/29 08:56:32;;;;;;;5.80;3.33;;;18.90;99.90;;;;;;5024225;28;20054;-56
2023/07/29 08:59:02;;;;;;;5.82;2.55;;;18.90;99.90;;;;;;5027229;28;20123;-53
2023/07/29 09:01:30;;;;;;;3.95;2.35;;;18.90;99.90;;;;;;5027481;28;20068;-55
2023/07/29 09:03:58;;;;;;;5.05;2.28;;;18.80;99.90;;;;;;5028376;28;20425;-55
2023/07/29 09:06:27;;;;;;;3.97;1.83;;;18.80;99.90;;;;;;5027714;28;20462;-53
2023/07/29 09:08:56;;;;;;;3.70;1.98;;;18.80;99.90;;;;;;5028427;28;20603;-57
2023/07/29 09:11:24;;;;;;;3.58;1.80;;;18.90;99.90;;;;;;5028171;28;20060;-53
2023/07/29 09:13:52;;;;;;;3.30;1.80;;;18.90;99.90;;;;;;5029766;28;20410;-54
2023/07/29 09:16:24;;;;;;;4.63;2.45;;;18.90;99.90;;;;;;5028343;28;20045;-54
2023/07/29 09:18:52;;;;;;;5.25;2.83;;;19.00;99.90;;;;;;5028570;28;20541;-48
2023/07/29 09:21:26;;;;;;;5.88;3.00;;;19.10;99.90;;;;;;5026825;28;20041;-52
2023/07/29 09:23:54;;;;;;;6.28;3.13;;;19.10;99.90;;;;;;5029653;28;20095;-53
2023/07/29 09:26:25;;;;;;;7.32;2.80;;;19.10;99.90;;;;;;5027967;28;20480;-54
2023/07/29 09:28:57;;;;;;;4.70;3.20;;;19.10;99.90;;;;;;5028191;28;20049;-50
2023/07/29 09:31:26;;;;;;;5.10;3.08;;;19.00;99.90;;;;;;5027344;28;20259;-55
2023/07/29 09:33:57;;;;;;;6.80;3.88;;;19.00;99.90;;;;;;5027994;28;20415;-55
2023/07/29 09:36:26;;;;;;;6.07;3.20;;;19.00;99.90;;;;;;5028914;28;20381;-54
2023/07/29 09:38:54;;;;;;;5.63;2.40;;;19.00;99.90;;;;;;5028322;28;20047;-52
2023/07/29 09:41:26;;;;;;;4.88;3.08;;;19.10;99.90;;;;;;5022699;28;20046;-56
2023/07/29 09:43:57;;;;;;;;;;;19.20;99.90;;;;;;5025283;28;20087;-57
2023/07/29 09:46:31;;;;;;;5.40;3.08;;;19.30;99.90;;;;;;5023619;28;20461;-54
2023/07/29 09:48:59;;;;;;;5.90;2.75;;;19.50;99.90;;;;;;5024319;28;20053;-52
2023/07/29 09:51:26;;;;;;;6.50;2.95;;;19.60;99.90;;;;;;5024510;28;20056;-53
2023/07/29 09:53:53;;;;;;;5.13;2.70;;;19.70;99.90;;;;;;5026675;28;20411;-54
2023/07/29 09:56:26;;;;;;;6.25;3.65;;;19.90;99.90;;;;;;5028487;28;20064;-54
2023/07/29 09:58:57;;;;;;;12.88;5.95;;;20.20;99.90;;;;;;5025582;28;20049;-52
2023/07/29 10:01:25;;;;;;;12.07;7.60;;;20.60;99.90;;;;;;5027724;28;20482;-51
2023/07/29 10:03:53;;;;;;;9.73;5.28;;;21.00;99.90;;;;;;5025495;28;20064;-57
2023/07/29 10:06:21;;;;;;;11.25;5.85;;;21.40;99.90;;;;;;5024631;28;20540;-58
2023/07/29 10:08:50;;;;;;;7.30;4.50;;;21.30;99.90;;;;;;5028569;28;20072;-51
2023/07/29 10:11:20;;;;;;;6.35;3.72;;;21.60;99.90;;;;;;5028770;28;20061;-52
2023/07/29 10:13:49;;;;;;;7.30;4.10;;;21.70;99.90;;;;;;5025789;28;20050;-52
2023/07/29 10:16:39;;;;;;;7.72;4.13;;;22.00;99.90;;;;;;5027733;28;20394;-51
2023/07/29 10:19:08;;;;;;;5.55;3.85;;;22.30;99.90;;;;;;5027473;28;20125;-52
2023/07/29 10:21:39;;;;;;;6.53;4.10;;;22.60;99.90;;;;;;5026427;28;20057;-49
2023/07/29 10:24:11;;;;;;;11.02;4.68;;;22.70;99.90;;;;;;5025635;28;20508;-51
2023/07/29 10:26:41;;;;;;;7.13;4.00;;;22.90;99.90;;;;;;5023197;28;20117;-55
2023/07/29 10:29:13;;;;;;;5.78;3.78;;;22.90;99.90;;;;;;5025045;28;20038;-53
2023/07/29 10:31:44;;;;;;;6.30;3.72;;;23.00;99.90;;;;;;5026513;28;20510;-54
2023/07/29 10:34:13;;;;;;;8.00;4.33;;;23.20;99.90;;;;;;5026771;28;20137;-52
2023/07/29 10:36:42;;;;;;;7.43;3.60;;;23.10;99.90;;;;;;5026834;28;20544;-51
2023/07/29 10:39:10;;;;;;;7.32;4.07;;;23.00;99.90;;;;;;5027034;28;20204;-56
2023/07/29 10:41:58;;;;;;;9.02;3.85;;;23.20;99.90;;;;;;5026730;28;20037;-52
2023/07/29 10:44:43;;;;;;;7.53;3.55;;;23.00;99.90;;;;;;5026363;28;20154;-56
2023/07/29 10:47:16;;;;;;;8.55;3.20;;;22.90;99.90;;;;;;5022061;28;20056;-53
2023/07/29 10:49:45;;;;;;;7.40;3.35;;;23.00;99.90;;;;;;5027838;28;20518;-54
2023/07/29 10:52:27;;;;;;;6.57;3.30;;;22.80;99.90;;;;;;5025807;28;20224;-51
2023/07/29 10:54:54;;;;;;;4.25;2.63;;;23.00;99.90;;;;;;5027201;28;20042;-49
2023/07/29 10:57:35;;;;;;;7.43;2.65;;;23.30;99.90;;;;;;5027352;28;20046;-56
2023/07/29 11:00:04;;;;;;;5.18;2.25;;;23.70;99.90;;;;;;5020945;28;20084;-55
2023/07/29 11:02:36;;;;;;;3.70;2.28;;;23.90;99.90;;;;;;5026851;28;20052;-55
2023/07/29 11:05:07;;;;;;;;;;;23.90;99.90;;;;;;5027922;28;20052;-56
2023/07/29 11:07:46;;;;;;;5.20;2.28;;;23.90;99.90;;;;;;5025483;28;19921;-58
2023/07/29 11:10:15;;;;;;;5.15;2.53;;;24.50;99.90;;;;;;5026390;28;20510;-52
2023/07/29 11:12:54;;;;;;;3.67;1.98;;;24.90;99.90;;;;;;5026642;28;20136;-52
2023/07/29 11:15:26;;;;;;;3.45;2.05;;;24.50;99.90;;;;;;5027216;28;20057;-56
2023/07/29 11:17:58;;;;;;;4.82;2.20;;;24.10;99.90;;;;;;5025593;28;20214;-52
2023/07/29 11:20:31;;;;;;;4.05;1.95;;;23.80;99.90;;;;;;5025885;28;20050;-50
2023/07/29 11:23:01;;;;;;;5.68;2.40;;;23.90;99.90;;;;;;5025985;28;20423;-56
2023/07/29 11:25:30;;;;;;;4.75;2.20;;;23.90;99.90;;;;;;5019921;28;20496;-54
2023/07/29 11:27:59;;;;;;;3.53;2.45;;;23.80;99.90;;;;;;5020184;28;20477;-53
2023/07/29 11:30:30;;;;;;;3.47;2.08;;;23.80;99.90;;;;;;5025551;28;20107;-52
2023/07/29 11:32:58;;;;;;;3.85;2.40;;;23.90;99.90;;;;;;5022284;28;20065;-55
2023/07/29 11:35:26;;;;;;;4.40;2.13;;;23.50;99.90;;;;;;5025412;28;20399;-59
2023/07/29 11:37:56;;;;;;;3.97;2.22;;;23.40;99.90;;;;;;5023112;28;20057;-53
2023/07/29 11:40:25;;;;;;;4.65;2.20;;;23.30;99.90;;;;;;5024310;28;20513;-51
2023/07/29 11:42:52;;;;;;;3.40;2.00;;;23.30;99.90;;;;;;5021381;28;20037;-47
2023/07/29 11:45:22;;;;;;;3.83;2.38;;;23.40;99.90;;;;;;5022679;28;20041;-51
2023/07/29 11:47:59;;;;;;;5.30;2.28;;;23.30;99.90;;;;;;5022719;28;20511;-51
2023/07/29 11:50:26;;;;;;;5.95;2.15;;;23.50;99.90;;;;;;5021415;28;20045;-53
2023/07/29 11:52:54;;;;;;;4.50;2.33;;;23.80;99.90;;;;;;5023064;28;20056;-57
2023/07/29 11:55:21;;;;;;;5.22;2.50;;;23.90;99.90;;;;;;5023579;28;20506;-53
2023/07/29 11:57:51;;;;;;;4.10;2.13;;;24.00;99.90;;;;;;5024161;28;20592;-52
2023/07/29 12:00:20;;;;;;;3.72;2.20;;;24.30;99.90;;;;;;5025474;28;20533;-49
2023/07/29 12:02:49;;;;;;;3.95;2.47;;;24.40;99.90;;;;;;5025889;28;20073;-51
2023/07/29 12:05:18;;;;;;;3.83;2.67;;;24.30;99.90;;;;;;5020908;28;20045;-50
2023/07/29 12:07:46;;;;;;;3.90;2.40;;;24.30;99.90;;;;;;5024800;28;20471;-48
2023/07/29 12:10:13;;;;;;;3.88;2.03;;;24.30;99.90;;;;;;5026578;28;20049;-51
2023/07/29 12:12:47;;;;;;;4.30;2.55;;;24.40;99.90;;;;;;5024937;28;20057;-52
2023/07/29 12:15:23;;;;;;;4.07;2.22;;;24.70;99.90;;;;;;5027003;28;20115;-52
2023/07/29 12:17:54;;;;;;;5.88;2.50;;;24.70;99.90;;;;;;5025248;28;20060;-51
2023/07/29 12:20:22;;;;;;;3.13;2.00;;;24.30;99.90;;;;;;5029077;28;20041;-50
2023/07/29 12:22:56;;;;;;;3.75;2.38;;;24.50;99.90;;;;;;5029977;28;20192;-52
2023/07/29 12:25:24;;;;;;;3.78;2.30;;;25.00;99.90;;;;;;5031604;28;20049;-50
2023/07/29 12:27:51;;;;;;;3.95;2.50;;;25.00;99.90;;;;;;5029156;28;20486;-50
2023/07/29 12:30:22;;;;;;;4.90;2.88;;;25.10;99.90;;;;;;5030257;28;20041;-53
2023/07/29 12:32:50;;;;;;;3.90;2.40;;;25.10;99.90;;;;;;5029413;28;20111;-52
2023/07/29 12:35:17;;;;;;;3.28;2.30;;;24.80;99.90;;;;;;5031129;28;20200;-54
2023/07/29 12:37:44;;;;;;;4.32;2.97;;;24.90;99.90;;;;;;5028314;28;20068;-49
2023/07/29 12:40:24;;;;;;;3.60;2.40;;;25.00;99.90;;;;;;5029445;28;20103;-49
2023/07/29 12:42:53;;;;;;;5.13;2.50;;;25.10;99.90;;;;;;5027517;28;20767;-51
2023/07/29 12:45:22;;;;;;;4.38;2.58;;;25.40;99.90;;;;;;5027579;28;20049;-52
2023/07/29 12:47:50;;;;;;;4.13;2.58;;;25.80;99.90;;;;;;5029093;28;20049;-53
2023/07/29 12:50:17;;;;;;;4.05;2.50;;;26.00;99.90;;;;;;5030277;28;20135;-54
2023/07/29 12:52:45;;;;;;;3.72;2.72;;;26.00;99.90;;;;;;5029114;28;20041;-53
2023/07/29 12:55:13;;;;;;;3.60;2.53;;;26.40;99.90;;;;;;5029570;28;20349;-51
2023/07/29 12:57:43;;;;;;;4.03;2.50;;;27.00;99.90;;;;;;5029010;28;20485;-52